createdAt,value
2023-05-09T00:00:11.060Z,15.40
2023-05-09T00:02:40.191Z,14.88
2023-05-09T00:05:08.517Z,19.33
2023-05-09T00:07:36.234Z,17.70
2023-05-09T00:10:04.564Z,20.13
2023-05-09T00:12:36.982Z,18.50
2023-05-09T00:15:08.466Z,18.25
2023-05-09T00:17:39.828Z,15.25
2023-05-09T00:20:12.282Z,17.00
2023-05-09T00:22:41.359Z,15.38
2023-05-09T00:27:38.319Z,23.45
2023-05-09T00:30:07.282Z,15.52
2023-05-09T00:32:34.846Z,17.65
2023-05-09T00:35:02.296Z,18.95
2023-05-09T00:37:31.256Z,21.20
2023-05-09T00:39:58.454Z,17.60
2023-05-09T00:42:25.813Z,16.02
2023-05-09T00:44:52.994Z,22.27
2023-05-09T00:47:24.055Z,18.30
2023-05-09T00:50:17.045Z,19.65
2023-05-09T00:52:44.319Z,21.83
2023-05-09T00:55:12.142Z,24.42
2023-05-09T00:57:39.616Z,20.95
2023-05-09T01:00:13.231Z,17.63
2023-05-09T01:02:46.816Z,24.67
2023-05-09T01:05:15.504Z,17.65
2023-05-09T01:08:36.391Z,16.17
2023-05-09T01:11:31.185Z,16.75
2023-05-09T01:14:39.063Z,15.70
2023-05-09T01:18:01.203Z,19.08
2023-05-09T01:20:46.881Z,17.70
2023-05-09T01:23:59.648Z,15.20
2023-05-09T01:26:43.506Z,21.63
2023-05-09T01:29:42.670Z,18.45
2023-05-09T01:32:20.276Z,15.70
2023-05-09T01:34:53.375Z,18.10
2023-05-09T01:37:30.633Z,19.70
2023-05-09T01:40:09.578Z,25.70
2023-05-09T01:42:56.834Z,23.92
2023-05-09T01:45:27.791Z,20.15
2023-05-09T01:48:00.284Z,18.83
2023-05-09T01:50:31.169Z,22.08
2023-05-09T01:53:02.181Z,18.48
2023-05-09T01:55:36.071Z,21.35
2023-05-09T01:58:11.773Z,15.80
2023-05-09T02:00:40.726Z,23.60
2023-05-09T02:03:09.885Z,19.33
2023-05-09T02:05:37.904Z,22.08
2023-05-09T02:08:06.727Z,27.73
2023-05-09T02:13:05.806Z,22.05
2023-05-09T02:15:34.211Z,19.77
2023-05-09T02:18:01.973Z,23.23
2023-05-09T02:20:29.357Z,18.73
2023-05-09T02:22:56.792Z,28.88
2023-05-09T02:25:25.867Z,30.55
2023-05-09T02:27:57.045Z,21.85
2023-05-09T02:30:27.084Z,27.08
2023-05-09T02:33:02.369Z,19.95
2023-05-09T02:35:30.095Z,29.42
2023-05-09T02:37:59.769Z,27.23
2023-05-09T02:40:31.080Z,22.45
2023-05-09T02:42:58.261Z,22.50
2023-05-09T02:45:26.089Z,19.77
2023-05-09T02:47:53.506Z,20.13
2023-05-09T02:50:21.182Z,22.75
2023-05-09T02:52:48.617Z,23.40
2023-05-09T02:55:16.234Z,29.17
2023-05-09T02:57:44.152Z,25.73
2023-05-09T03:00:12.395Z,23.67
2023-05-09T03:02:39.926Z,23.17
2023-05-09T03:05:13.539Z,21.75
2023-05-09T03:07:41.942Z,25.02
2023-05-09T03:10:12.305Z,24.30
2023-05-09T03:12:40.400Z,28.40
2023-05-09T03:15:08.970Z,23.48
2023-05-09T03:17:37.934Z,22.02
2023-05-09T03:20:07.891Z,22.98
2023-05-09T03:22:35.179Z,28.63
2023-05-09T03:25:06.677Z,20.80
2023-05-09T03:27:34.262Z,21.15
2023-05-09T03:30:02.119Z,22.85
2023-05-09T03:32:29.988Z,30.98
2023-05-09T03:34:57.597Z,27.40
2023-05-09T03:37:27.217Z,24.63
2023-05-09T03:39:55.148Z,28.70
2023-05-09T03:42:23.389Z,26.08
2023-05-09T03:44:53.138Z,22.83
2023-05-09T03:47:21.983Z,24.85
2023-05-09T03:49:50.805Z,30.10
2023-05-09T03:52:21.815Z,30.88
2023-05-09T03:54:49.681Z,24.88
2023-05-09T03:57:17.232Z,24.15
2023-05-09T03:59:46.040Z,28.90
2023-05-09T04:02:14.501Z,27.55
2023-05-09T04:04:41.970Z,31.10
2023-05-09T04:07:09.944Z,31.15
2023-05-09T04:09:37.197Z,30.63
2023-05-09T04:12:04.765Z,34.38
2023-05-09T04:14:32.821Z,27.30
2023-05-09T04:17:00.069Z,30.23
2023-05-09T04:19:27.405Z,27.33
2023-05-09T04:21:55.834Z,28.92
2023-05-09T04:24:23.341Z,28.83
2023-05-09T04:26:50.974Z,28.67
2023-05-09T04:29:21.689Z,29.35
2023-05-09T04:31:53.532Z,28.83
2023-05-09T04:34:26.249Z,30.98
2023-05-09T04:36:54.641Z,27.75
2023-05-09T04:39:21.982Z,25.45
2023-05-09T04:41:58.032Z,32.40
2023-05-09T04:44:27.860Z,26.48
2023-05-09T04:46:55.649Z,29.83
2023-05-09T04:49:22.881Z,27.00
2023-05-09T04:51:51.723Z,25.90
2023-05-09T04:54:18.824Z,29.65
2023-05-09T04:56:47.395Z,27.48
2023-05-09T04:59:15.830Z,28.88
2023-05-09T05:01:43.926Z,29.33
2023-05-09T05:04:11.289Z,32.22
2023-05-09T05:06:38.424Z,30.08
2023-05-09T05:09:05.796Z,27.98
2023-05-09T05:11:33.737Z,28.52
2023-05-09T05:16:29.873Z,29.75
2023-05-09T05:18:57.436Z,32.70
2023-05-09T05:21:25.086Z,35.92
2023-05-09T05:23:52.792Z,30.02
2023-05-09T05:26:21.029Z,31.35
2023-05-09T05:28:48.808Z,30.98
2023-05-09T05:31:15.998Z,31.52
2023-05-09T05:33:43.185Z,30.10
2023-05-09T05:36:10.636Z,31.65
2023-05-09T05:38:38.010Z,31.50
2023-05-09T05:41:05.639Z,30.00
2023-05-09T05:43:34.020Z,37.80
2023-05-09T05:46:01.692Z,33.17
2023-05-09T05:48:30.781Z,34.97
2023-05-09T05:50:58.895Z,33.40
2023-05-09T05:53:30.879Z,33.17
2023-05-09T05:55:59.907Z,36.35
2023-05-09T05:58:28.013Z,31.23
2023-05-09T06:00:55.383Z,31.55
2023-05-09T06:03:22.706Z,34.75
2023-05-09T06:05:58.156Z,32.00
2023-05-09T06:08:26.749Z,37.22
2023-05-09T06:10:54.042Z,36.35
2023-05-09T06:13:21.621Z,35.05
2023-05-09T06:16:02.020Z,31.30
2023-05-09T06:18:37.705Z,33.78
2023-05-09T06:21:04.983Z,35.13
2023-05-09T06:23:32.387Z,32.17
2023-05-09T06:25:59.597Z,32.13
2023-05-09T06:28:28.225Z,35.63
2023-05-09T06:30:55.533Z,31.02
2023-05-09T06:33:25.613Z,33.67
2023-05-09T06:35:52.814Z,30.73
2023-05-09T06:38:19.991Z,32.15
2023-05-09T06:40:47.132Z,29.17
2023-05-09T06:43:14.278Z,33.80
2023-05-09T06:45:41.425Z,33.33
2023-05-09T06:48:08.633Z,33.03
2023-05-09T06:50:35.929Z,28.25
2023-05-09T06:53:03.422Z,34.40
2023-05-09T06:55:30.597Z,29.52
2023-05-09T06:57:59.272Z,31.73
2023-05-09T07:00:27.062Z,30.25
2023-05-09T07:02:54.941Z,29.80
2023-05-09T07:05:22.962Z,28.48
2023-05-09T07:07:51.707Z,30.92
2023-05-09T07:10:19.819Z,31.17
2023-05-09T07:12:47.768Z,31.73
2023-05-09T07:15:22.707Z,34.63
2023-05-09T07:18:01.999Z,28.20
2023-05-09T07:20:29.404Z,24.45
2023-05-09T07:22:58.425Z,26.77
2023-05-09T07:25:26.214Z,27.30
2023-05-09T07:27:53.832Z,30.10
2023-05-09T07:30:21.147Z,28.38
2023-05-09T07:32:48.719Z,27.70
2023-05-09T07:35:16.228Z,24.60
2023-05-09T07:37:43.502Z,29.70
2023-05-09T07:40:11.437Z,34.33
2023-05-09T07:42:38.771Z,24.88
2023-05-09T07:45:07.227Z,22.27
2023-05-09T07:47:34.507Z,25.45
2023-05-09T07:50:01.730Z,26.13
2023-05-09T07:52:29.285Z,27.27
2023-05-09T07:54:56.968Z,22.10
2023-05-09T07:57:24.240Z,28.10
2023-05-09T07:59:52.127Z,31.70
2023-05-09T08:02:19.978Z,28.40
2023-05-09T08:04:49.104Z,25.38
2023-05-09T08:07:16.794Z,21.80
2023-05-09T08:09:44.160Z,23.38
2023-05-09T08:12:11.819Z,26.92
2023-05-09T08:14:39.478Z,23.05
2023-05-09T08:17:07.283Z,24.73
2023-05-09T08:19:34.885Z,22.08
2023-05-09T08:22:03.094Z,23.15
2023-05-09T08:24:31.975Z,24.15
2023-05-09T08:26:59.928Z,19.77
2023-05-09T08:29:27.206Z,31.05
2023-05-09T08:31:54.581Z,27.65
2023-05-09T08:34:21.721Z,23.67
2023-05-09T08:36:48.999Z,25.80
2023-05-09T08:39:16.262Z,36.88
2023-05-09T08:41:44.334Z,24.70
2023-05-09T08:44:12.604Z,26.10
2023-05-09T08:46:45.299Z,23.83
2023-05-09T08:49:13.190Z,21.50
2023-05-09T08:51:41.283Z,21.40
2023-05-09T08:54:11.250Z,26.52
2023-05-09T08:56:39.143Z,24.58
2023-05-09T08:59:07.044Z,17.73
2023-05-09T09:01:37.874Z,23.67
2023-05-09T09:04:08.453Z,20.58
2023-05-09T09:06:37.071Z,23.08
2023-05-09T09:09:11.439Z,20.75
2023-05-09T09:11:42.426Z,18.60
2023-05-09T09:14:24.093Z,18.05
2023-05-09T09:16:54.892Z,20.35
2023-05-09T09:19:30.690Z,23.27
2023-05-09T09:22:04.783Z,17.85
2023-05-09T09:24:32.286Z,20.40
2023-05-09T09:27:08.370Z,18.70
2023-05-09T09:29:35.675Z,16.10
2023-05-09T09:32:06.578Z,16.48
2023-05-09T09:34:33.950Z,14.65
2023-05-09T09:37:01.175Z,14.20
2023-05-09T09:39:28.301Z,17.10
2023-05-09T09:41:55.798Z,16.42
2023-05-09T09:44:24.006Z,13.50
2023-05-09T09:46:56.223Z,18.50
2023-05-09T09:49:27.020Z,18.70
2023-05-09T09:52:02.101Z,15.75
2023-05-09T09:54:29.617Z,15.63
2023-05-09T09:56:57.502Z,13.23
2023-05-09T09:59:27.503Z,13.55
2023-05-09T10:02:09.309Z,11.82
2023-05-09T10:04:41.511Z,14.05
2023-05-09T10:07:13.720Z,15.38
2023-05-09T10:09:43.872Z,13.70
2023-05-09T10:12:12.214Z,13.15
2023-05-09T10:14:42.958Z,12.50
2023-05-09T10:17:15.103Z,10.23
2023-05-09T10:19:47.780Z,12.68
2023-05-09T10:22:19.304Z,10.43
2023-05-09T10:25:13.038Z,11.32
2023-05-09T10:27:46.771Z,10.85
2023-05-09T10:30:20.680Z,12.55
2023-05-09T10:33:03.445Z,12.63
2023-05-09T10:35:56.195Z,11.20
2023-05-09T10:38:24.866Z,12.18
2023-05-09T10:40:54.312Z,17.42
2023-05-09T10:43:24.993Z,15.60
2023-05-09T10:45:53.773Z,10.57
2023-05-09T10:48:22.593Z,11.93
2023-05-09T10:50:50.168Z,16.02
2023-05-09T10:53:18.253Z,11.77
2023-05-09T10:55:55.296Z,20.13
2023-05-09T10:58:34.202Z,16.10
2023-05-09T11:03:59.967Z,9.52
2023-05-09T11:06:43.529Z,11.95
2023-05-09T11:09:32.856Z,12.93
2023-05-09T11:12:21.292Z,11.48
2023-05-09T11:14:54.712Z,10.15
2023-05-09T11:17:21.957Z,12.90
2023-05-09T11:19:49.882Z,13.45
2023-05-09T11:22:42.938Z,17.27
2023-05-09T11:25:14.944Z,8.68
2023-05-09T11:27:49.497Z,10.85
2023-05-09T11:30:20.153Z,8.70
2023-05-09T11:32:59.004Z,12.35
2023-05-09T11:35:27.282Z,11.15
2023-05-09T11:38:06.877Z,10.10
2023-05-09T11:40:35.729Z,9.48
2023-05-09T11:45:33.940Z,8.48
2023-05-09T11:48:02.081Z,8.02
2023-05-09T11:50:30.003Z,12.25
2023-05-09T11:52:57.385Z,8.55
2023-05-09T11:55:32.560Z,11.50
2023-05-09T11:57:59.902Z,8.18
2023-05-09T12:00:27.204Z,9.02
2023-05-09T12:02:54.873Z,12.45
2023-05-09T12:05:23.405Z,9.93
2023-05-09T12:07:52.256Z,8.85
2023-05-09T12:10:23.490Z,7.80
2023-05-09T12:12:57.269Z,7.82
2023-05-09T12:15:25.313Z,9.18
2023-05-09T12:18:08.108Z,5.85
2023-05-09T12:20:50.288Z,9.98
2023-05-09T12:23:23.767Z,4.97
2023-05-09T12:25:57.211Z,4.38
2023-05-09T12:28:26.400Z,4.90
2023-05-09T12:30:54.968Z,7.95
2023-05-09T12:33:22.675Z,5.40
2023-05-09T12:36:19.548Z,3.80
2023-05-09T12:38:55.271Z,4.90
2023-05-09T12:41:36.868Z,3.15
2023-05-09T12:44:09.852Z,4.43
2023-05-09T12:46:37.682Z,9.13
2023-05-09T12:49:05.428Z,4.13
2023-05-09T12:51:32.636Z,4.30
2023-05-09T12:54:04.983Z,7.00
2023-05-09T12:56:35.725Z,4.70
2023-05-09T12:59:03.577Z,4.32
2023-05-09T13:01:32.022Z,1.87
2023-05-09T13:04:06.370Z,7.00
2023-05-09T13:06:35.700Z,4.25
2023-05-09T13:09:06.233Z,4.13
2023-05-09T13:11:35.363Z,5.25
2023-05-09T13:14:04.139Z,2.92
2023-05-09T13:16:31.661Z,2.80
2023-05-09T13:18:58.860Z,5.68
2023-05-09T13:21:26.227Z,3.72
2023-05-09T13:23:54.557Z,5.28
2023-05-09T13:26:23.100Z,3.17
2023-05-09T13:31:19.016Z,3.45
2023-05-09T13:33:48.636Z,4.03
2023-05-09T13:36:17.236Z,4.47
2023-05-09T13:38:45.584Z,9.18
2023-05-09T13:41:20.182Z,3.15
2023-05-09T13:43:48.111Z,4.13
2023-05-09T13:46:15.953Z,3.78
2023-05-09T13:48:44.480Z,3.60
2023-05-09T13:53:39.705Z,3.22
2023-05-09T13:56:09.482Z,4.32
2023-05-09T13:58:36.898Z,2.85
2023-05-09T14:01:07.811Z,2.20
2023-05-09T14:03:42.990Z,4.78
2023-05-09T14:06:15.315Z,2.25
2023-05-09T14:08:42.609Z,5.88
2023-05-09T14:11:15.375Z,2.35
2023-05-09T14:13:42.704Z,5.15
2023-05-09T14:16:10.232Z,4.60
2023-05-09T14:18:37.471Z,2.45
2023-05-09T14:21:04.972Z,2.72
2023-05-09T14:23:32.489Z,4.20
2023-05-09T14:25:59.674Z,2.40
2023-05-09T14:28:27.243Z,5.43
2023-05-09T14:30:54.443Z,5.88
2023-05-09T14:33:21.666Z,6.82
2023-05-09T14:36:14.544Z,34.05
2023-05-09T14:44:41.794Z,12.27
2023-05-09T14:47:21.758Z,8.88
2023-05-09T14:49:53.011Z,15.13
2023-05-09T14:52:20.633Z,14.18
2023-05-09T14:54:47.892Z,14.45
2023-05-09T14:57:17.766Z,15.60
2023-05-09T14:59:45.922Z,9.43
2023-05-09T15:02:26.141Z,7.90
2023-05-09T15:04:56.048Z,10.30
2023-05-09T15:07:23.866Z,14.48
2023-05-09T15:09:51.341Z,9.43
2023-05-09T15:12:18.448Z,10.07
2023-05-09T15:14:45.611Z,9.30
2023-05-09T15:17:13.004Z,12.52
2023-05-09T15:19:41.701Z,9.93
2023-05-09T15:22:09.404Z,8.05
2023-05-09T15:24:37.524Z,9.13
2023-05-09T15:27:05.089Z,9.90
2023-05-09T15:29:32.828Z,16.00
2023-05-09T15:32:00.765Z,14.57
2023-05-09T15:34:27.960Z,8.10
2023-05-09T15:36:55.119Z,7.68
2023-05-09T15:39:22.384Z,10.95
2023-05-09T15:41:49.482Z,8.27
2023-05-09T15:44:16.792Z,5.95
2023-05-09T15:46:44.279Z,8.85
2023-05-09T15:49:11.395Z,9.52
2023-05-09T15:51:38.594Z,11.70
2023-05-09T15:54:05.834Z,10.00
2023-05-09T15:56:32.965Z,9.95
2023-05-09T15:59:00.498Z,6.63
2023-05-09T16:01:35.127Z,9.18
2023-05-09T16:04:02.977Z,7.85
2023-05-09T16:06:30.851Z,8.80
2023-05-09T16:08:58.275Z,10.70
2023-05-09T16:11:25.518Z,7.82
2023-05-09T16:13:52.835Z,9.05
2023-05-09T16:16:20.200Z,8.98
2023-05-09T16:18:47.445Z,11.10
2023-05-09T16:21:14.686Z,7.20
2023-05-09T16:23:42.817Z,6.15
2023-05-09T16:26:10.712Z,4.72
2023-05-09T16:28:40.092Z,7.30
2023-05-09T16:31:08.552Z,7.10
2023-05-09T16:33:35.731Z,10.05
2023-05-09T16:36:02.938Z,3.90
2023-05-09T16:38:30.365Z,4.20
2023-05-09T16:40:57.585Z,6.40
2023-05-09T16:43:24.795Z,8.63
2023-05-09T16:45:52.895Z,5.45
2023-05-09T16:48:20.263Z,5.65
2023-05-09T16:50:48.368Z,8.07
2023-05-09T16:53:17.388Z,11.85
2023-05-09T16:55:44.560Z,9.90
2023-05-09T16:58:11.740Z,18.27
2023-05-09T17:00:38.960Z,6.75
2023-05-09T17:03:07.213Z,13.43
2023-05-09T17:05:34.993Z,8.73
2023-05-09T17:08:02.632Z,7.35
2023-05-09T17:10:30.592Z,10.80
2023-05-09T17:12:58.247Z,10.97
2023-05-09T17:15:26.183Z,7.63
2023-05-09T17:17:53.616Z,5.20
2023-05-09T17:20:20.837Z,4.97
2023-05-09T17:22:48.152Z,8.82
2023-05-09T17:25:16.683Z,11.38
2023-05-09T17:27:43.885Z,7.80
2023-05-09T17:30:11.705Z,12.50
2023-05-09T17:32:38.960Z,16.27
2023-05-09T17:35:06.948Z,19.13
2023-05-09T17:37:34.228Z,15.45
2023-05-09T17:40:02.156Z,10.80
2023-05-09T17:42:29.426Z,14.05
2023-05-09T17:44:56.750Z,14.10
2023-05-09T17:47:24.129Z,25.05
2023-05-09T17:49:52.094Z,12.57
2023-05-09T17:52:19.270Z,13.98
2023-05-09T17:54:47.258Z,15.63
2023-05-09T17:57:14.823Z,13.73
2023-05-09T17:59:42.337Z,20.45
2023-05-09T18:02:11.118Z,7.80
2023-05-09T18:04:39.090Z,5.20
2023-05-09T18:07:08.736Z,16.42
2023-05-09T18:09:36.076Z,16.73
2023-05-09T18:12:03.495Z,14.60
2023-05-09T18:14:30.667Z,8.48
2023-05-09T18:16:58.063Z,6.43
2023-05-09T18:19:25.534Z,7.45
2023-05-09T18:21:53.562Z,15.02
2023-05-09T18:24:21.719Z,15.10
2023-05-09T18:26:49.369Z,8.18
2023-05-09T18:29:20.380Z,9.18
2023-05-09T18:31:48.004Z,13.88
2023-05-09T18:34:15.193Z,14.82
2023-05-09T18:36:42.431Z,11.60
2023-05-09T18:39:11.734Z,7.20
2023-05-09T18:41:38.912Z,7.28
2023-05-09T18:44:06.104Z,8.23
2023-05-09T18:46:33.802Z,10.52
2023-05-09T18:49:02.910Z,10.13
2023-05-09T18:51:31.608Z,18.55
2023-05-09T18:53:58.695Z,17.42
2023-05-09T18:56:25.807Z,16.83
2023-05-09T18:58:53.002Z,14.57
2023-05-09T19:01:20.630Z,10.55
2023-05-09T19:03:54.018Z,11.37
2023-05-09T19:06:21.998Z,14.40
2023-05-09T19:08:49.273Z,15.88
2023-05-09T19:11:16.413Z,12.77
2023-05-09T19:13:48.616Z,16.13
2023-05-09T19:16:18.685Z,11.20
2023-05-09T19:18:47.262Z,7.30
2023-05-09T19:21:15.715Z,14.18
2023-05-09T19:23:47.708Z,15.07
2023-05-09T19:26:19.621Z,8.68
2023-05-09T19:28:47.247Z,10.77
2023-05-09T19:31:16.070Z,12.48
2023-05-09T19:33:46.525Z,12.38
2023-05-09T19:36:14.356Z,10.48
2023-05-09T19:38:41.600Z,10.43
2023-05-09T19:41:08.882Z,8.38
2023-05-09T19:43:36.208Z,10.35
2023-05-09T19:46:03.665Z,7.90
2023-05-09T19:48:30.888Z,8.02
2023-05-09T19:50:59.222Z,12.52
2023-05-09T19:53:26.679Z,12.20
2023-05-09T19:55:54.076Z,15.77
2023-05-09T19:58:21.354Z,10.70
2023-05-09T20:00:48.765Z,9.32
2023-05-09T20:03:16.024Z,13.10
2023-05-09T20:05:43.293Z,8.85
2023-05-09T20:08:10.610Z,10.25
2023-05-09T20:10:38.306Z,15.07
2023-05-09T20:13:06.615Z,7.95
2023-05-09T20:15:33.898Z,11.77
2023-05-09T20:18:03.535Z,7.68
2023-05-09T20:20:32.230Z,8.75
2023-05-09T20:22:59.586Z,8.20
2023-05-09T20:25:27.613Z,6.40
2023-05-09T20:27:55.356Z,6.70
2023-05-09T20:30:22.579Z,8.68
2023-05-09T20:32:50.172Z,8.88
2023-05-09T20:35:17.405Z,7.72
2023-05-09T20:37:44.700Z,7.78
2023-05-09T20:40:17.334Z,8.85
2023-05-09T20:43:11.118Z,8.57
2023-05-09T20:45:53.817Z,7.40
2023-05-09T20:48:23.658Z,8.60
2023-05-09T20:50:51.411Z,6.55
2023-05-09T20:53:19.105Z,10.80
2023-05-09T20:55:47.797Z,12.88
2023-05-09T20:58:16.384Z,8.65
2023-05-09T21:00:47.150Z,9.52
2023-05-09T21:03:14.883Z,6.65
2023-05-09T21:05:42.150Z,4.30
2023-05-09T21:08:09.451Z,8.85
2023-05-09T21:10:37.010Z,7.63
2023-05-09T21:13:04.700Z,7.20
2023-05-09T21:15:32.020Z,7.45
2023-05-09T21:17:59.312Z,11.45
2023-05-09T21:20:26.693Z,5.15
2023-05-09T21:22:54.360Z,5.97
2023-05-09T21:25:26.036Z,7.25
2023-05-09T21:27:53.519Z,7.40
2023-05-09T21:30:20.842Z,5.45
2023-05-09T21:32:51.399Z,10.10
2023-05-09T21:35:18.814Z,7.18
2023-05-09T21:37:46.662Z,10.02
2023-05-09T21:40:14.190Z,5.07
2023-05-09T21:42:43.752Z,8.75
2023-05-09T21:45:11.528Z,9.95
2023-05-09T21:47:41.801Z,8.82
2023-05-09T21:50:10.281Z,8.82
2023-05-09T21:52:37.458Z,7.97
2023-05-09T21:55:05.246Z,6.57
2023-05-09T21:57:32.473Z,8.77
2023-05-09T22:00:01.615Z,7.00
2023-05-09T22:02:34.238Z,4.07
2023-05-09T22:05:01.678Z,10.45
2023-05-09T22:07:28.870Z,6.25
2023-05-09T22:09:55.955Z,8.27
2023-05-09T22:12:23.168Z,7.28
2023-05-09T22:14:56.340Z,9.32
2023-05-09T22:17:24.628Z,7.85
2023-05-09T22:19:52.851Z,4.93
2023-05-09T22:22:21.364Z,8.20
2023-05-09T22:24:49.693Z,8.57
2023-05-09T22:27:16.980Z,8.40
2023-05-09T22:29:45.807Z,7.97
2023-05-09T22:32:15.050Z,6.75
2023-05-09T22:34:42.227Z,6.65
2023-05-09T22:37:09.909Z,6.80
2023-05-09T22:39:37.113Z,7.25
2023-05-09T22:42:04.470Z,5.25
2023-05-09T22:44:32.493Z,6.63
2023-05-09T22:46:59.612Z,6.53
2023-05-09T22:49:26.830Z,9.00
2023-05-09T22:51:53.950Z,7.18
2023-05-09T22:54:22.731Z,5.00
2023-05-09T22:56:49.971Z,7.90
2023-05-09T22:59:17.266Z,7.00
2023-05-09T23:01:44.921Z,6.97
2023-05-09T23:04:12.508Z,6.18
2023-05-09T23:06:39.705Z,7.03
2023-05-09T23:09:06.923Z,4.50
2023-05-09T23:11:34.011Z,7.07
2023-05-09T23:14:01.551Z,6.50
2023-05-09T23:16:28.962Z,4.43
2023-05-09T23:18:56.546Z,5.22
2023-05-09T23:21:24.031Z,7.75
2023-05-09T23:23:52.161Z,3.85
2023-05-09T23:26:20.974Z,5.93
2023-05-09T23:28:48.583Z,4.25
2023-05-09T23:31:15.732Z,3.05
2023-05-09T23:33:43.943Z,2.78
2023-05-09T23:36:11.128Z,8.10
2023-05-09T23:38:38.674Z,3.05
2023-05-09T23:41:06.183Z,6.22
2023-05-09T23:43:34.465Z,2.22
2023-05-09T23:46:01.875Z,4.13
2023-05-09T23:48:29.088Z,2.00
2023-05-09T23:50:56.972Z,4.93
2023-05-09T23:53:24.819Z,1.95
2023-05-09T23:55:52.015Z,6.07
2023-05-09T23:58:19.162Z,4.65
